Time;durP1;ratioP1;P1;durP2;ratioP2;P2;SDS_P1;SDS_P2;PMS_P1;PMS_P2;Temp;Humidity;BMP_temperature;BMP_pressure;BME280_temperature;BME280_humidity;BME280_pressure;Samples;Min_cycle;Max_cycle;Signal;HPM_P1;HPM_P2
2022/06/20 00:01:15;;;;;;;12.10;2.88;;;;;;;16.21;67.91;101276.38;5055973;28;20391;-66
2022/06/20 00:03:44;;;;;;;12.32;2.60;;;;;;;16.21;67.92;101270.16;5055718;28;20051;-66
2022/06/20 00:06:18;;;;;;;10.32;2.70;;;;;;;16.17;67.62;101277.28;5054357;28;20441;-66
2022/06/20 00:08:44;;;;;;;8.70;2.70;;;;;;;16.16;68.08;101283.50;5055633;28;20024;-66
2022/06/20 00:11:19;;;;;;;13.30;3.40;;;;;;;16.12;67.50;101275.53;5055614;28;20027;-66
2022/06/20 00:13:47;;;;;;;14.88;3.10;;;;;;;16.13;67.67;101267.53;5055776;28;20025;-66
2022/06/20 00:16:15;;;;;;;12.65;3.40;;;;;;;16.05;67.83;101261.34;5055644;28;20035;-66
2022/06/20 00:18:41;;;;;;;13.82;3.30;;;;;;;16.03;67.72;101265.81;5055329;28;20466;-66
2022/06/20 00:21:11;;;;;;;10.57;3.08;;;;;;;15.95;68.09;101283.63;5055582;28;20060;-66
2022/06/20 00:23:36;;;;;;;13.30;3.22;;;;;;;15.99;67.39;101291.59;5055354;28;20059;-66
2022/06/20 00:26:02;;;;;;;9.55;3.05;;;;;;;16.05;67.11;101293.34;5054983;28;20076;-66
2022/06/20 00:28:27;;;;;;;12.65;3.22;;;;;;;15.99;66.94;101310.25;5055253;28;20044;-66
2022/06/20 00:30:53;;;;;;;9.50;2.92;;;;;;;16.07;66.87;101336.00;5055015;28;20025;-66
2022/06/20 00:33:18;;;;;;;9.07;2.95;;;;;;;16.10;66.17;101352.88;5055457;28;20021;-66
2022/06/20 00:35:44;;;;;;;8.38;2.75;;;;;;;16.20;65.97;101337.72;5055147;28;20033;-66
2022/06/20 00:38:17;;;;;;;12.20;2.83;;;;;;;16.15;65.32;101339.53;5055396;28;20119;-66
2022/06/20 00:40:47;;;;;;;11.27;2.90;;;;;;;16.19;65.25;101366.16;5055102;28;20029;-66
2022/06/20 00:43:19;;;;;;;10.88;2.72;;;;;;;16.20;65.59;101389.25;5055348;28;20025;-66
2022/06/20 00:45:47;;;;;;;;;;;;;;;16.39;64.76;101392.72;5055911;28;20060;-66
2022/06/20 00:48:19;;;;;;;15.48;3.13;;;;;;;16.35;65.02;101411.44;5055023;28;20366;-66
2022/06/20 00:50:51;;;;;;;10.00;2.80;;;;;;;16.39;64.09;101442.53;5055027;28;20043;-66
2022/06/20 00:53:29;;;;;;;10.38;2.60;;;;;;;16.41;64.32;101484.31;5054874;28;20025;-66
2022/06/20 00:56:09;;;;;;;10.40;2.63;;;;;;;16.36;64.88;101509.22;5054763;28;20013;-66
2022/06/20 00:58:41;;;;;;;9.80;2.40;;;;;;;16.28;65.39;101535.91;5055032;28;20032;-66
2022/06/20 01:01:14;;;;;;;9.80;3.00;;;;;;;16.30;65.32;101511.91;5054834;28;20033;-66
2022/06/20 01:03:46;;;;;;;12.05;2.83;;;;;;;16.23;65.28;101500.34;5054584;28;20332;-66
2022/06/20 01:06:21;;;;;;;13.32;2.97;;;;;;;16.36;65.27;101474.53;5054357;28;20025;-66
2022/06/20 01:08:51;;;;;;;6.60;2.58;;;;;;;16.40;65.15;101469.22;5054938;28;20029;-66
2022/06/20 01:11:31;;;;;;;9.55;2.75;;;;;;;16.43;65.47;101452.28;5054584;28;20024;-66
2022/06/20 01:13:56;;;;;;;7.60;2.65;;;;;;;16.40;65.34;101449.63;5054531;28;20131;-66
2022/06/20 01:16:25;;;;;;;11.18;2.88;;;;;;;16.42;65.29;101450.53;5054434;28;20116;-66
2022/06/20 01:18:51;;;;;;;13.63;2.92;;;;;;;16.39;65.69;101429.19;5054381;28;20036;-66
2022/06/20 01:21:21;;;;;;;11.73;2.88;;;;;;;16.50;66.28;101428.25;5054524;28;20104;-66
2022/06/20 01:23:52;;;;;;;11.98;2.88;;;;;;;16.52;66.05;101425.56;5054422;28;20410;-66
2022/06/20 01:26:33;;;;;;;10.65;2.67;;;;;;;16.55;65.53;101411.34;5053871;28;20135;-66
2022/06/20 01:29:02;;;;;;;7.85;2.58;;;;;;;16.50;66.63;101403.38;5054127;28;20045;-66
2022/06/20 01:31:33;;;;;;;10.82;3.00;;;;;;;16.42;66.98;101382.06;5054032;28;20029;-66
2022/06/20 01:34:01;;;;;;;9.73;2.80;;;;;;;16.40;67.23;101373.19;5054283;28;20028;-66
2022/06/20 01:39:17;;;;;;;12.07;2.75;;;;;;;16.22;67.66;101374.13;5054337;28;20048;-66
2022/06/20 01:44:31;;;;;;;7.75;2.65;;;;;;;16.24;67.78;101371.47;5054463;28;20099;-66
2022/06/20 01:46:56;;;;;;;10.80;2.80;;;;;;;16.09;68.06;101361.75;5053760;28;20497;-66
2022/06/20 01:49:24;;;;;;;8.57;2.63;;;;;;;16.11;68.30;101345.75;5053632;28;20029;-66
2022/06/20 01:51:59;;;;;;;8.35;2.40;;;;;;;15.89;68.72;101351.16;5054016;28;20031;-66
2022/06/20 01:54:28;;;;;;;8.68;2.50;;;;;;;15.83;68.93;101348.50;5053770;28;20025;-66
2022/06/20 01:56:54;;;;;;;7.78;2.58;;;;;;;15.82;69.22;101353.84;5054087;28;20036;-66
2022/06/20 01:59:24;;;;;;;8.05;2.70;;;;;;;15.75;69.37;101344.97;5053825;28;20029;-66
2022/06/20 02:01:51;;;;;;;8.15;2.50;;;;;;;15.81;69.16;101346.75;5053675;28;20025;-66
2022/06/20 02:04:23;;;;;;;11.40;3.10;;;;;;;15.77;68.93;101338.75;5053815;28;20422;-66
2022/06/20 02:06:49;;;;;;;6.75;2.50;;;;;;;15.70;69.76;101338.78;5053386;28;20095;-66
2022/06/20 02:09:15;;;;;;;7.35;2.47;;;;;;;15.69;68.90;101332.56;5053878;28;20091;-66
2022/06/20 02:11:44;;;;;;;10.80;2.67;;;;;;;15.66;68.96;101321.91;5053329;28;20043;-66
2022/06/20 02:14:35;;;;;;;8.30;2.80;;;;;;;15.73;68.71;101310.34;5053221;28;20387;-66
2022/06/20 02:17:06;;;;;;;13.57;2.83;;;;;;;15.68;68.57;101322.81;5053478;28;20526;-66
2022/06/20 02:19:37;;;;;;;8.73;2.63;;;;;;;15.61;68.72;101318.34;5053281;28;20360;-66
2022/06/20 02:22:06;;;;;;;9.25;2.50;;;;;;;15.66;68.59;101302.38;5053362;28;20028;-66
2022/06/20 02:24:36;;;;;;;13.15;2.90;;;;;;;15.65;68.65;101293.50;5053404;28;20035;-66
2022/06/20 02:27:04;;;;;;;10.18;2.88;;;;;;;15.54;68.21;101297.91;5053105;28;20052;-66
2022/06/20 02:29:30;;;;;;;10.68;2.78;;;;;;;15.45;68.65;101289.94;5053129;28;20474;-66
2022/06/20 02:32:11;;;;;;;10.77;2.50;;;;;;;15.49;68.30;101289.06;5053271;28;20048;-66
2022/06/20 02:34:38;;;;;;;9.98;2.85;;;;;;;15.53;68.17;101283.72;5053479;28;20108;-66
2022/06/20 02:37:09;;;;;;;7.95;2.60;;;;;;;15.40;68.25;101287.31;5053262;28;20033;-66
2022/06/20 02:39:38;;;;;;;8.20;2.47;;;;;;;15.41;68.18;101285.53;5053399;28;20048;-66
2022/06/20 02:42:08;;;;;;;9.38;2.70;;;;;;;15.40;68.17;101291.75;5052858;28;20482;-66
2022/06/20 02:44:34;;;;;;;8.68;2.58;;;;;;;15.40;68.57;101294.41;5053303;28;20105;-66
2022/06/20 02:47:04;;;;;;;7.78;2.38;;;;;;;15.37;68.25;101283.75;5053013;28;20071;-66
2022/06/20 02:49:31;;;;;;;10.82;2.60;;;;;;;15.28;68.09;101277.56;5053133;28;20029;-66
2022/06/20 02:51:57;;;;;;;11.38;2.60;;;;;;;15.19;68.64;101266.91;5053071;28;20032;-66
2022/06/20 02:54:27;;;;;;;12.38;2.60;;;;;;;15.15;69.17;101269.59;5053084;28;20052;-66
2022/06/20 02:57:04;;;;;;;12.02;3.00;;;;;;;15.06;69.53;101256.31;5052968;28;20062;-66
2022/06/20 02:59:36;;;;;;;8.40;2.55;;;;;;;15.06;69.56;101246.53;5053028;28;20474;-66
2022/06/20 03:02:08;;;;;;;11.55;2.90;;;;;;;15.09;70.05;101240.34;5052873;28;20079;-66
2022/06/20 03:04:36;;;;;;;8.83;2.47;;;;;;;15.00;69.81;101236.78;5051759;28;20025;-66
2022/06/20 03:07:14;;;;;;;6.65;2.30;;;;;;;15.13;70.25;101227.00;5052729;28;20025;-66
2022/06/20 03:09:42;;;;;;;10.98;2.70;;;;;;;15.06;69.44;101241.22;5053141;28;20471;-66
2022/06/20 03:12:09;;;;;;;8.10;2.60;;;;;;;14.98;69.89;101240.34;5052741;28;20021;-65
2022/06/20 03:14:40;;;;;;;12.40;2.95;;;;;;;15.02;69.76;101242.97;5052927;28;20437;-65
2022/06/20 03:17:07;;;;;;;12.27;2.88;;;;;;;15.02;69.45;101248.31;5051463;28;20024;-66
2022/06/20 03:19:37;;;;;;;10.55;2.78;;;;;;;15.06;69.33;101254.53;5052797;28;20040;-66
2022/06/20 03:22:07;;;;;;;7.07;2.30;;;;;;;14.99;69.31;101250.13;5052767;28;20033;-66
2022/06/20 03:24:34;;;;;;;6.28;2.28;;;;;;;14.93;69.36;101247.44;5053715;28;20032;-66
2022/06/20 03:27:02;;;;;;;11.13;2.67;;;;;;;14.92;68.91;101254.53;5056168;28;20076;-66
2022/06/20 03:29:28;;;;;;;9.43;2.90;;;;;;;14.89;69.13;101261.63;5056401;28;20043;-66
2022/06/20 03:31:54;;;;;;;6.30;2.65;;;;;;;14.87;69.34;101277.59;5056410;28;20025;-65
2022/06/20 03:34:21;;;;;;;7.78;2.58;;;;;;;14.93;69.46;101282.91;5056411;28;20489;-65
2022/06/20 03:36:48;;;;;;;7.30;2.53;;;;;;;15.00;69.55;101270.50;5056528;28;20029;-66
2022/06/20 03:39:16;;;;;;;10.82;2.35;;;;;;;15.12;68.89;101274.94;5056164;28;20056;-66
2022/06/20 03:41:41;;;;;;;12.50;2.53;;;;;;;15.16;68.97;101282.00;5056391;28;20029;-66
2022/06/20 03:44:29;;;;;;;14.65;2.55;;;;;;;15.16;68.72;101292.66;5054903;28;20041;-66
2022/06/20 03:47:04;;;;;;;11.00;2.83;;;;;;;15.18;68.75;101301.53;5056211;28;20111;-66
2022/06/20 03:49:51;;;;;;;9.52;2.55;;;;;;;15.24;68.13;101314.84;5056357;28;20025;-66
2022/06/20 03:52:27;;;;;;;9.35;2.60;;;;;;;15.28;68.36;101322.81;5056209;28;20060;-65
2022/06/20 03:55:20;;;;;;;7.85;2.78;;;;;;;15.37;67.56;101339.66;5055981;28;20428;-66
2022/06/20 03:58:13;;;;;;;8.63;2.53;;;;;;;15.42;67.77;101346.78;5055977;28;20107;-65
2022/06/20 04:00:48;;;;;;;7.07;2.40;;;;;;;15.36;68.27;101335.25;5055830;28;20036;-66
2022/06/20 04:03:32;;;;;;;8.55;2.88;;;;;;;15.36;68.24;101335.25;5055847;28;20025;-66
2022/06/20 04:06:11;;;;;;;7.95;2.42;;;;;;;15.31;68.24;101335.25;5055860;28;20061;-66
2022/06/20 04:11:50;;;;;;;9.30;2.58;;;;;;;15.43;68.10;101342.34;5055911;28;20040;-66
2022/06/20 04:14:46;;;;;;;10.02;2.72;;;;;;;15.48;67.64;101346.78;5055533;28;20076;-66
2022/06/20 04:20:17;;;;;;;11.50;2.70;;;;;;;15.51;67.99;101353.88;5055674;28;20067;-66
2022/06/20 04:22:46;;;;;;;8.57;3.17;;;;;;;15.56;68.13;101361.88;5055436;28;20044;-66
2022/06/20 04:25:33;;;;;;;11.98;3.00;;;;;;;15.60;68.08;101358.31;5055678;28;20025;-65
2022/06/20 04:28:25;;;;;;;9.75;2.75;;;;;;;15.63;68.26;101371.59;5055058;28;20060;-65
2022/06/20 04:31:20;;;;;;;11.20;3.10;;;;;;;15.67;68.04;101376.06;5055283;28;20033;-65
2022/06/20 04:33:56;;;;;;;7.80;2.72;;;;;;;15.65;68.42;101373.41;5050830;28;20037;-65
2022/06/20 04:36:34;;;;;;;8.38;2.80;;;;;;;15.63;68.61;101376.94;5054657;28;20446;-65
2022/06/20 04:39:26;;;;;;;9.32;2.75;;;;;;;15.61;69.25;101378.72;5055024;28;20029;-66
2022/06/20 04:42:02;;;;;;;11.70;2.97;;;;;;;15.70;68.96;101384.06;5055434;28;20025;-65
2022/06/20 04:44:36;;;;;;;9.52;2.50;;;;;;;15.71;69.39;101391.16;5055149;28;20129;-65
2022/06/20 04:47:12;;;;;;;10.27;2.67;;;;;;;15.70;69.38;101386.72;5054870;28;20489;-66
2022/06/20 04:49:38;;;;;;;10.95;2.70;;;;;;;15.73;69.04;101384.94;5054958;28;20544;-66
2022/06/20 04:52:09;;;;;;;11.20;2.83;;;;;;;15.74;69.40;101393.81;5055092;28;20060;-65
2022/06/20 04:54:34;;;;;;;14.15;2.90;;;;;;;15.76;69.14;101400.06;5054686;28;20116;-65
2022/06/20 04:57:01;;;;;;;7.80;2.72;;;;;;;15.73;69.32;101397.38;5054610;28;20104;-66
2022/06/20 04:59:30;;;;;;;7.57;2.78;;;;;;;15.86;68.99;101409.81;5054764;28;20509;-66
2022/06/20 05:01:59;;;;;;;11.02;2.90;;;;;;;15.81;69.26;101408.03;5054841;28;20021;-66
2022/06/20 05:04:32;;;;;;;7.50;2.40;;;;;;;15.88;68.62;101399.13;5054902;28;20025;-65
2022/06/20 05:07:04;;;;;;;9.13;2.60;;;;;;;15.86;69.08;101401.81;5053136;28;20371;-65
2022/06/20 05:09:52;;;;;;;8.73;2.65;;;;;;;15.92;69.11;101407.09;5054600;28;20025;-66
2022/06/20 05:12:29;;;;;;;11.63;2.53;;;;;;;15.92;69.54;101404.44;5054416;28;20471;-65
2022/06/20 05:15:33;;;;;;;8.18;2.50;;;;;;;15.97;69.04;101412.44;5054751;28;20028;-66
2022/06/20 05:18:18;;;;;;;10.68;2.75;;;;;;;15.88;69.28;101415.13;5012809;28;20021;-65
2022/06/20 05:20:46;;;;;;;8.38;2.65;;;;;;;15.81;69.76;101406.25;5052282;28;20051;-64
2022/06/20 05:23:18;;;;;;;8.25;2.45;;;;;;;15.90;69.82;101411.56;5054668;28;20017;-65
2022/06/20 05:25:44;;;;;;;11.90;2.85;;;;;;;15.94;69.71;101413.34;5054312;28;20025;-65
2022/06/20 05:28:17;;;;;;;9.00;2.50;;;;;;;15.97;69.61;101420.44;5052805;28;20051;-65
2022/06/20 05:30:45;;;;;;;12.50;3.10;;;;;;;15.99;69.98;101429.31;5054316;28;20033;-65
2022/06/20 05:33:13;;;;;;;6.72;2.53;;;;;;;16.00;69.68;101421.31;5054146;28;20028;-65
2022/06/20 05:35:51;;;;;;;12.10;2.83;;;;;;;16.01;69.85;101411.53;5054514;28;20033;-66
2022/06/20 05:38:28;;;;;;;5.95;2.60;;;;;;;16.04;69.85;101400.88;5054150;28;20028;-65
2022/06/20 05:40:56;;;;;;;7.47;2.75;;;;;;;16.04;70.09;101411.53;5054194;28;20025;-65
2022/06/20 05:43:22;;;;;;;6.97;2.55;;;;;;;16.10;70.01;101411.53;5054116;28;20375;-65
2022/06/20 05:45:50;;;;;;;6.05;2.60;;;;;;;16.13;69.90;101402.63;5053669;28;20040;-65
2022/06/20 05:48:16;;;;;;;11.90;2.70;;;;;;;16.11;69.42;101389.31;5053457;28;20059;-65
2022/06/20 05:50:57;;;;;;;8.45;3.00;;;;;;;16.09;69.69;101399.06;5053758;28;20029;-65
2022/06/20 05:53:28;;;;;;;10.02;2.80;;;;;;;15.99;70.15;101400.00;5053801;28;20024;-65
2022/06/20 05:55:56;;;;;;;10.38;2.88;;;;;;;15.98;70.49;101408.91;5053932;28;20017;-66
2022/06/20 05:58:28;;;;;;;8.80;2.75;;;;;;;16.08;70.41;101415.09;5053801;28;20021;-65
2022/06/20 06:00:56;;;;;;;14.57;2.80;;;;;;;16.10;70.20;101419.53;5054043;28;20052;-65
2022/06/20 06:03:34;;;;;;;13.32;3.00;;;;;;;16.24;70.31;101420.38;5053587;28;20490;-65
2022/06/20 06:06:08;;;;;;;9.85;2.92;;;;;;;16.20;69.57;101425.72;5053794;28;20151;-65
2022/06/20 06:08:33;;;;;;;9.15;3.05;;;;;;;16.21;69.75;101424.81;5053413;28;20082;-65
2022/06/20 06:11:18;;;;;;;8.77;3.20;;;;;;;16.30;69.73;101429.22;5053658;28;20029;-65
2022/06/20 06:14:08;;;;;;;10.45;2.90;;;;;;;16.36;69.50;101430.13;5053698;28;20056;-65
2022/06/20 06:16:48;;;;;;;10.32;2.80;;;;;;;16.44;69.46;101422.94;5053133;28;20107;-65
2022/06/20 06:19:32;;;;;;;7.68;2.60;;;;;;;16.49;68.48;101421.16;5053749;28;20025;-65
2022/06/20 06:22:11;;;;;;;13.55;2.92;;;;;;;16.56;68.29;101419.34;5053363;28;20036;-65
2022/06/20 06:24:41;;;;;;;14.82;3.00;;;;;;;16.59;68.48;101422.00;5053479;28;20021;-65
2022/06/20 06:27:12;;;;;;;9.82;2.70;;;;;;;16.56;68.07;101423.78;5052984;28;20056;-65
2022/06/20 06:30:04;;;;;;;8.13;2.85;;;;;;;16.65;68.10;101437.06;5053246;28;20037;-65
2022/06/20 06:32:42;;;;;;;9.30;2.85;;;;;;;16.62;67.93;101427.31;5053397;28;20032;-65
2022/06/20 06:35:29;;;;;;;12.90;3.08;;;;;;;16.61;68.09;101430.88;5053485;28;20063;-65
2022/06/20 06:38:00;;;;;;;12.18;2.90;;;;;;;16.71;68.32;101429.06;5053071;28;20040;-65
2022/06/20 06:40:32;;;;;;;9.18;2.88;;;;;;;16.76;67.96;101425.50;5053687;28;20427;-64
2022/06/20 06:42:59;;;;;;;9.07;2.75;;;;;;;16.80;67.54;101437.06;5053032;28;20044;-65
2022/06/20 06:45:29;;;;;;;12.13;3.13;;;;;;;16.93;67.26;101430.75;5053057;28;20029;-65
2022/06/20 06:48:06;;;;;;;10.57;3.00;;;;;;;17.16;67.94;101435.03;5052966;28;20040;-64
2022/06/20 06:50:45;;;;;;;9.13;2.83;;;;;;;17.57;67.37;101439.19;5053238;28;20129;-65
2022/06/20 06:53:37;;;;;;;10.35;2.80;;;;;;;17.86;65.94;101455.88;5052990;28;20029;-64
2022/06/20 06:56:15;;;;;;;7.05;2.40;;;;;;;18.20;63.46;101451.06;5050650;28;20068;-64
2022/06/20 06:58:52;;;;;;;8.82;2.80;;;;;;;18.38;63.04;101457.13;5052831;28;20364;-65
2022/06/20 07:01:28;;;;;;;8.05;3.00;;;;;;;18.52;62.35;101455.16;5057293;28;20375;-64
2022/06/20 07:04:28;;;;;;;10.13;2.97;;;;;;;18.53;61.76;101457.81;5057036;28;20059;-64
2022/06/20 07:06:59;;;;;;;8.40;2.45;;;;;;;18.41;60.52;101459.72;5056791;28;20029;-65
2022/06/20 07:09:39;;;;;;;7.75;2.53;;;;;;;18.41;61.16;101465.09;5057061;28;20021;-64
2022/06/20 07:12:26;;;;;;;8.73;2.60;;;;;;;18.47;60.84;101473.94;5056757;28;20147;-64
2022/06/20 07:15:23;;;;;;;10.02;2.58;;;;;;;18.68;59.80;101475.47;5056714;28;20386;-64
2022/06/20 07:17:58;;;;;;;6.50;2.42;;;;;;;18.69;59.21;101471.91;5048285;28;20044;-64
2022/06/20 07:20:35;;;;;;;7.80;2.50;;;;;;;18.68;59.65;101477.28;5056527;28;20033;-64
2022/06/20 07:23:04;;;;;;;7.68;2.63;;;;;;;19.06;58.86;101474.13;5056645;28;20482;-64
2022/06/20 07:25:35;;;;;;;8.32;2.58;;;;;;;19.05;57.26;101474.13;5055113;28;20032;-64
2022/06/20 07:28:06;;;;;;;9.35;2.83;;;;;;;18.84;57.98;101480.66;5056798;28;20047;-64
2022/06/20 07:30:40;;;;;;;5.45;2.60;;;;;;;18.77;58.24;101480.75;5056342;28;20380;-64
2022/06/20 07:33:24;;;;;;;9.52;2.80;;;;;;;18.87;58.81;101485.97;5056504;28;20440;-64
2022/06/20 07:35:54;;;;;;;6.72;2.63;;;;;;;18.71;57.06;101478.16;5056381;28;20108;-64
2022/06/20 07:38:31;;;;;;;9.50;2.60;;;;;;;18.63;58.08;101474.66;5054861;28;20520;-64
2022/06/20 07:41:06;;;;;;;11.00;2.90;;;;;;;18.91;57.26;101477.88;5056752;28;20021;-64
2022/06/20 07:43:49;;;;;;;6.68;2.47;;;;;;;19.16;57.31;101481.09;5056157;28;20025;-64
2022/06/20 07:46:25;;;;;;;6.13;2.42;;;;;;;19.38;56.74;101481.66;5056423;28;20025;-64
2022/06/20 07:48:56;;;;;;;6.95;2.58;;;;;;;19.30;54.87;101480.88;5056455;28;20057;-64
2022/06/20 07:51:44;;;;;;;8.35;2.95;;;;;;;19.17;55.41;101482.88;5056284;28;20025;-64
2022/06/20 07:54:27;;;;;;;5.88;2.17;;;;;;;19.01;55.45;101490.25;5056312;28;20033;-64
2022/06/20 07:57:07;;;;;;;6.22;2.50;;;;;;;18.94;54.90;101485.00;5056003;28;20475;-64
2022/06/20 07:59:40;;;;;;;7.40;2.60;;;;;;;19.09;54.82;101487.44;5056120;28;20029;-64
2022/06/20 08:02:18;;;;;;;8.10;2.60;;;;;;;19.20;54.42;101488.19;5054806;28;20383;-64
2022/06/20 08:04:46;;;;;;;5.95;2.53;;;;;;;19.20;54.17;101490.88;5055862;28;20074;-64
2022/06/20 08:07:20;;;;;;;4.68;2.30;;;;;;;19.62;53.12;101491.16;5055777;28;20025;-64
2022/06/20 08:09:59;;;;;;;5.82;2.53;;;;;;;20.05;53.24;101490.41;5055481;28;20029;-64
2022/06/20 08:12:33;;;;;;;6.47;2.58;;;;;;;20.48;51.02;101487.81;5055558;28;20482;-64
2022/06/20 08:15:28;;;;;;;7.97;2.38;;;;;;;20.74;49.39;101500.72;5055758;28;20025;-64
2022/06/20 08:17:54;;;;;;;5.60;2.30;;;;;;;20.39;46.33;101500.53;5054274;28;20060;-63
2022/06/20 08:20:24;;;;;;;8.10;2.35;;;;;;;20.09;47.74;101499.28;5055818;28;20167;-64
2022/06/20 08:22:55;;;;;;;6.10;2.42;;;;;;;19.89;47.45;101495.16;5055707;28;20028;-64
2022/06/20 08:25:22;;;;;;;9.03;3.47;;;;;;;19.97;49.82;101503.06;5055643;28;20021;-63
2022/06/20 08:28:07;;;;;;;5.55;2.65;;;;;;;20.45;50.54;101495.91;5055254;28;20106;-63
2022/06/20 08:30:53;;;;;;;9.88;2.75;;;;;;;21.09;48.51;101490.13;5055241;28;20037;-63
2022/06/20 08:33:31;;;;;;;6.05;2.38;;;;;;;21.64;47.05;101494.25;5054060;28;20387;-63
2022/06/20 08:35:59;;;;;;;5.47;2.20;;;;;;;22.06;45.28;101505.72;5055001;28;20033;-63
2022/06/20 08:38:34;;;;;;;8.90;3.22;;;;;;;22.49;45.06;101497.38;5055494;28;20387;-63
2022/06/20 08:41:24;;;;;;;6.63;2.35;;;;;;;22.81;44.02;101508.13;5055185;28;20111;-63
2022/06/20 08:44:27;;;;;;;7.72;2.50;;;;;;;23.01;42.76;101507.59;5055200;28;20091;-63
2022/06/20 08:47:01;;;;;;;7.38;2.50;;;;;;;23.23;41.10;101503.28;5055104;28;20032;-63
2022/06/20 08:49:45;;;;;;;7.50;2.63;;;;;;;23.63;41.79;101504.69;5055138;28;20037;-63
2022/06/20 08:52:59;;;;;;;5.50;2.50;;;;;;;24.26;39.80;101499.88;5053711;28;20032;-62
2022/06/20 08:55:58;;;;;;;6.53;2.45;;;;;;;24.33;39.54;101515.81;5017856;28;20449;-63
2022/06/20 08:58:39;;;;;;;8.38;2.75;;;;;;;23.91;38.66;101518.19;5055060;28;20471;-63
2022/06/20 09:01:43;;;;;;;5.70;2.53;;;;;;;23.62;41.83;101530.81;5055027;28;20025;-62
2022/06/20 09:04:29;;;;;;;8.55;2.70;;;;;;;23.07;41.59;101527.13;5033487;28;20167;-62
2022/06/20 09:06:59;;;;;;;5.32;2.58;;;;;;;22.67;41.65;101524.72;5054545;28;20117;-62
2022/06/20 09:09:54;;;;;;;7.03;2.78;;;;;;;22.16;42.54;101533.28;5054646;28;20036;-62
2022/06/20 09:12:39;;;;;;;7.03;2.63;;;;;;;21.99;41.79;101537.28;5054575;28;20090;-62
2022/06/20 09:15:17;;;;;;;9.25;2.80;;;;;;;22.34;42.98;101531.91;5054486;28;20544;-62
2022/06/20 09:17:52;;;;;;;9.75;3.25;;;;;;;22.69;42.22;101531.81;5054576;28;20032;-62
2022/06/20 09:20:30;;;;;;;9.48;3.10;;;;;;;22.90;43.00;101537.53;5054386;28;20040;-62
2022/06/20 09:23:02;;;;;;;7.05;2.67;;;;;;;22.79;41.71;101534.25;5054198;28;20025;-62
2022/06/20 09:25:53;;;;;;;8.40;2.65;;;;;;;22.56;41.80;101542.97;5054639;28;20032;-62
2022/06/20 09:28:35;;;;;;;8.70;2.85;;;;;;;22.68;42.23;101540.81;5053932;28;20064;-62
2022/06/20 09:31:09;;;;;;;6.65;2.67;;;;;;;23.02;40.51;101539.88;5054176;28;20033;-62
2022/06/20 09:33:55;;;;;;;5.35;2.55;;;;;;;23.13;39.97;101540.44;5054265;28;20033;-62
2022/06/20 09:36:40;;;;;;;7.88;2.88;;;;;;;23.20;39.81;101538.44;5054067;28;20041;-62
2022/06/20 09:39:27;;;;;;;7.60;2.13;;;;;;;23.65;38.02;101541.53;5054066;28;20079;-62
2022/06/20 09:42:18;;;;;;;8.02;2.67;;;;;;;24.08;34.65;101540.09;5054296;28;20025;-62
2022/06/20 09:44:49;;;;;;;7.55;2.80;;;;;;;24.55;35.75;101551.09;5038188;28;20037;-62
2022/06/20 09:47:30;;;;;;;8.20;3.10;;;;;;;25.13;34.92;101540.81;5054001;28;20136;-62
2022/06/20 09:50:23;;;;;;;9.38;2.95;;;;;;;25.19;34.86;101537.00;5054050;28;20095;-62
2022/06/20 09:53:26;;;;;;;6.10;2.85;;;;;;;25.35;35.38;101534.53;5054018;28;20057;-62
2022/06/20 09:56:16;;;;;;;8.32;2.80;;;;;;;25.66;33.97;101526.09;5053797;28;20095;-62
2022/06/20 09:59:03;;;;;;;8.43;2.70;;;;;;;25.41;34.38;101537.03;5053691;28;20032;-62
2022/06/20 10:01:39;;;;;;;8.98;3.03;;;;;;;25.19;34.55;101534.28;5053646;28;20536;-62
2022/06/20 10:04:20;;;;;;;7.43;3.13;;;;;;;25.01;34.96;101535.88;5052359;28;20052;-63
2022/06/20 10:06:59;;;;;;;8.63;2.85;;;;;;;25.16;33.84;101529.88;5053713;28;20036;-62
2022/06/20 10:09:43;;;;;;;9.20;2.92;;;;;;;25.17;34.54;101538.88;5053631;28;20109;-62
2022/06/20 10:12:34;;;;;;;10.93;3.35;;;;;;;25.65;32.42;101535.13;5053416;28;20039;-62
2022/06/20 10:15:12;;;;;;;7.63;2.97;;;;;;;26.03;32.31;101533.56;5053691;28;20386;-62
2022/06/20 10:18:02;;;;;;;7.80;3.00;;;;;;;25.85;34.33;101537.94;5053777;28;20029;-62
2022/06/20 10:20:48;;;;;;;9.40;3.20;;;;;;;25.76;34.01;101540.13;5053368;28;20036;-62
2022/06/20 10:23:42;;;;;;;10.35;3.28;;;;;;;26.13;32.84;101537.66;5053575;28;20029;-62
2022/06/20 10:26:32;;;;;;;10.95;3.38;;;;;;;26.83;31.98;101540.91;5053255;28;20051;-62
2022/06/20 10:29:29;;;;;;;9.52;3.10;;;;;;;26.97;32.34;101543.84;5053501;28;20187;-62
2022/06/20 10:31:59;;;;;;;7.72;3.05;;;;;;;26.17;32.10;101547.41;5045805;28;20490;-63
2022/06/20 10:34:58;;;;;;;7.07;3.00;;;;;;;25.85;34.10;101559.59;5053080;28;20025;-62
2022/06/20 10:37:38;;;;;;;11.38;3.47;;;;;;;25.96;33.00;101551.03;5053123;28;20024;-63
2022/06/20 10:40:25;;;;;;;9.23;3.50;;;;;;;25.95;33.58;101558.28;5053568;28;20444;-63
2022/06/20 10:43:11;;;;;;;12.65;3.50;;;;;;;26.20;33.55;101555.38;5053369;28;20451;-63
2022/06/20 10:45:48;;;;;;;10.52;3.30;;;;;;;26.53;31.46;101559.44;5053430;28;20029;-62
2022/06/20 10:48:13;;;;;;;7.55;3.13;;;;;;;26.80;32.74;101560.91;5053797;28;20060;-63
2022/06/20 10:50:51;;;;;;;9.38;3.45;;;;;;;27.24;31.84;101570.66;5053078;28;20052;-63
2022/06/20 10:53:36;;;;;;;9.10;3.13;;;;;;;27.20;30.63;101568.13;5053160;28;20024;-63
2022/06/20 10:56:13;;;;;;;8.20;3.33;;;;;;;26.87;31.00;101573.22;5053201;28;20114;-62
2022/06/20 10:59:24;;;;;;;10.40;3.20;;;;;;;26.69;31.79;101572.25;5053346;28;20033;-63
2022/06/20 11:01:57;;;;;;;10.70;3.23;;;;;;;26.80;30.08;101571.75;5011538;28;20222;-63
2022/06/20 11:04:34;;;;;;;11.13;3.30;;;;;;;26.93;31.78;101580.19;5049336;28;20398;-62
2022/06/20 11:07:12;;;;;;;7.32;2.92;;;;;;;26.78;29.23;101578.22;5052694;28;20504;-62
2022/06/20 11:09:56;;;;;;;8.57;3.22;;;;;;;26.71;30.80;101577.59;5053193;28;20471;-62
2022/06/20 11:12:49;;;;;;;10.23;2.97;;;;;;;27.11;30.97;101576.69;5052844;28;20037;-63
2022/06/20 11:15:55;;;;;;;9.90;3.22;;;;;;;27.62;29.47;101575.16;5053042;28;20037;-63
2022/06/20 11:18:45;;;;;;;7.88;2.92;;;;;;;27.99;29.82;101586.91;5053297;28;20506;-63
2022/06/20 11:21:25;;;;;;;7.95;2.80;;;;;;;28.29;28.71;101584.47;5052646;28;20071;-63
2022/06/20 11:24:15;;;;;;;12.52;3.20;;;;;;;28.34;28.15;101578.78;5052704;28;20025;-63
2022/06/20 11:27:00;;;;;;;7.15;3.05;;;;;;;28.32;27.83;101578.00;5052668;28;20041;-63
2022/06/20 11:29:49;;;;;;;7.53;3.08;;;;;;;28.08;28.68;101583.72;5052939;28;20434;-63
2022/06/20 11:32:35;;;;;;;9.57;3.15;;;;;;;27.64;29.57;101573.22;5052917;28;20398;-63
2022/06/20 11:35:19;;;;;;;7.22;3.20;;;;;;;27.09;29.87;101578.56;5052675;28;20029;-62
2022/06/20 11:38:12;;;;;;;8.48;3.20;;;;;;;27.17;30.80;101576.38;5052741;28;20029;-63
2022/06/20 11:40:49;;;;;;;6.47;2.95;;;;;;;27.29;30.53;101576.78;5052718;28;20029;-63
2022/06/20 11:43:26;;;;;;;10.70;3.20;;;;;;;27.33;29.39;101571.13;5052503;28;20521;-63
2022/06/20 11:46:02;;;;;;;7.47;2.90;;;;;;;27.44;29.52;101574.19;5053762;28;20463;-62
2022/06/20 11:48:40;;;;;;;8.13;2.97;;;;;;;27.46;29.31;101575.00;5056174;28;20028;-63
2022/06/20 11:51:27;;;;;;;9.32;3.00;;;;;;;27.40;29.60;101572.56;5056435;28;20082;-63
2022/06/20 11:54:17;;;;;;;7.72;3.08;;;;;;;27.55;29.60;101575.53;5056443;28;20025;-63
2022/06/20 11:56:59;;;;;;;7.07;3.03;;;;;;;28.23;28.41;101565.78;5056047;28;20070;-63
2022/06/20 11:59:37;;;;;;;6.38;2.78;;;;;;;28.47;27.16;101568.19;5056067;28;20036;-63
2022/06/20 12:02:18;;;;;;;9.02;2.83;;;;;;;28.91;27.83;101563.13;5056145;28;20406;-63
2022/06/20 12:05:07;;;;;;;;;;;;;;;29.35;28.51;101568.81;5056705;28;20482;-61
2022/06/20 12:07:46;;;;;;;6.93;2.70;;;;;;;29.26;27.02;101563.03;5055269;28;20274;-61
2022/06/20 12:10:24;;;;;;;10.68;2.97;;;;;;;29.28;27.44;101567.41;5055843;28;20111;-61
2022/06/20 12:12:55;;;;;;;13.27;3.00;;;;;;;29.09;26.52;101577.56;5055812;28;20074;-61
2022/06/20 12:15:45;;;;;;;8.48;2.97;;;;;;;28.61;27.44;101576.53;5055646;28;20025;-61
2022/06/20 12:18:22;;;;;;;7.93;2.92;;;;;;;27.87;27.36;101574.81;5055765;28;20475;-61